Time;durP1;ratioP1;P1;durP2;ratioP2;P2;SDS_P1;SDS_P2;PMS_P1;PMS_P2;Temp;Humidity;BMP_temperature;BMP_pressure;BME280_temperature;BME280_humidity;BME280_pressure;Samples;Min_cycle;Max_cycle;Signal;HPM_P1;HPM_P2
2022/04/02 00:02:19;;;;;;;4.60;3.40;;;;;;;12.57;80.93;95476.84;6226327;23;20160;-84
2022/04/02 00:04:46;;;;;;;7.53;3.20;;;;;;;12.20;80.59;95494.44;6237713;23;20228;-84
2022/04/02 00:07:13;;;;;;;7.10;2.93;;;;;;;12.12;81.32;95497.63;6232692;23;20162;-84
2022/04/02 00:09:41;;;;;;;13.30;5.63;;;;;;;12.18;82.30;95488.53;6225594;23;20176;-84
2022/04/02 00:12:09;;;;;;;8.40;3.40;;;;;;;12.24;82.47;95496.69;6229665;23;20170;-83
2022/04/02 00:14:37;;;;;;;7.27;3.20;;;;;;;12.40;80.87;95483.34;6225005;23;20168;-83
2022/04/02 00:17:04;;;;;;;10.30;4.03;;;;;;;12.09;80.99;95471.09;6195689;23;20194;-85
2022/04/02 00:19:36;;;;;;;12.07;3.93;;;;;;;12.06;81.08;95447.97;6214930;23;20254;-85
2022/04/02 00:22:04;;;;;;;9.60;3.67;;;;;;;12.06;82.49;95492.06;6212392;23;20171;-84
2022/04/02 00:24:34;;;;;;;8.43;3.00;;;;;;;11.60;82.49;95457.56;6187965;23;20159;-83
2022/04/02 00:27:01;;;;;;;17.90;6.57;;;;;;;11.35;84.29;95474.91;6216337;23;20163;-84
2022/04/02 00:29:28;;;;;;;10.43;4.47;;;;;;;11.44;85.28;95483.78;6214010;23;20167;-84
2022/04/02 00:31:55;;;;;;;13.60;5.90;;;;;;;11.41;85.55;95471.91;6213825;23;20183;-84
2022/04/02 00:34:23;;;;;;;15.73;5.70;;;;;;;11.63;85.36;95478.06;6209510;23;20228;-83
2022/04/02 00:36:50;;;;;;;9.70;5.93;;;;;;;11.59;84.64;95446.34;6211094;23;20166;-85
2022/04/02 00:39:20;;;;;;;8.67;3.43;;;;;;;11.55;83.74;95457.91;6213861;23;20534;-85
2022/04/02 00:41:47;;;;;;;10.57;3.90;;;;;;;11.38;85.03;95456.56;6216914;23;20163;-84
2022/04/02 00:44:21;;;;;;;10.93;3.47;;;;;;;11.22;85.88;95463.81;6221559;23;20163;-84
2022/04/02 00:46:48;;;;;;;11.90;3.60;;;;;;;11.11;86.49;95462.94;6185644;23;20166;-84
2022/04/02 00:49:15;;;;;;;9.93;3.23;;;;;;;10.86;86.69;95434.59;6210361;23;20627;-84
2022/04/02 00:51:44;;;;;;;8.13;3.40;;;;;;;10.96;86.77;95464.06;6210967;23;20174;-83
2022/04/02 00:54:17;;;;;;;7.57;3.17;;;;;;;11.11;86.40;95471.53;6213265;23;20173;-85
2022/04/02 00:56:47;;;;;;;8.50;3.57;;;;;;;11.45;85.88;95470.72;6210534;23;20162;-85
2022/04/02 00:59:17;;;;;;;8.50;3.63;;;;;;;11.65;85.05;95458.03;6210806;23;20203;-84
2022/04/02 01:01:45;;;;;;;9.27;4.10;;;;;;;11.87;84.08;95460.72;6211842;23;20174;-84
2022/04/02 01:04:13;;;;;;;7.73;3.40;;;;;;;11.74;83.74;95453.03;6211023;23;20558;-85
2022/04/02 01:06:43;;;;;;;8.37;2.80;;;;;;;11.62;83.17;95442.72;6228799;23;20171;-83
2022/04/02 01:09:20;;;;;;;10.47;3.10;;;;;;;11.74;82.65;95465.16;6226279;23;20174;-84
2022/04/02 01:12:07;;;;;;;4.17;2.97;;;;;;;11.81;83.22;95474.13;6208442;23;20176;-86
2022/04/02 01:14:38;;;;;;;7.03;3.27;;;;;;;11.90;83.81;95468.25;6228925;23;20165;-85
2022/04/02 01:17:17;;;;;;;9.03;3.53;;;;;;;11.69;83.33;95433.56;6232306;23;20170;-85
2022/04/02 01:19:47;;;;;;;6.47;3.13;;;;;;;11.89;82.45;95470.00;6233395;23;20219;-85
2022/04/02 01:22:24;;;;;;;5.73;3.07;;;;;;;11.68;81.34;95435.34;6177128;23;20184;-84
2022/04/02 01:24:53;;;;;;;11.43;2.80;;;;;;;11.93;81.25;95470.63;6223389;23;20187;-85
2022/04/02 01:27:22;;;;;;;10.33;3.23;;;;;;;11.89;81.82;95449.25;6232242;23;20174;-85
2022/04/02 01:29:58;;;;;;;9.40;3.37;;;;;;;11.57;79.51;95440.47;6236220;23;20165;-90
2022/04/02 01:32:26;;;;;;;10.67;3.10;;;;;;;11.85;80.60;95467.78;6231660;23;20186;-90
2022/04/02 01:35:16;;;;;;;8.93;3.10;;;;;;;11.85;81.67;95457.41;6232759;23;20165;-92
2022/04/02 01:37:54;;;;;;;5.80;2.60;;;;;;;11.32;80.83;95368.91;6236267;23;20162;-84
2022/04/02 01:40:24;;;;;;;6.97;2.80;;;;;;;11.97;80.83;95465.06;6236958;23;20225;-85
2022/04/02 01:42:51;;;;;;;10.97;3.83;;;;;;;12.05;80.86;95469.69;6238497;23;20173;-85
2022/04/02 01:45:18;;;;;;;8.77;3.37;;;;;;;11.66;82.18;95442.41;6235810;23;20163;-84
2022/04/02 01:47:54;;;;;;;10.80;4.67;;;;;;;11.65;84.14;95471.81;6223474;23;20187;-84
2022/04/02 01:50:32;;;;;;;7.50;4.27;;;;;;;11.68;83.34;95476.84;6220215;23;20204;-84
2022/04/02 01:53:00;;;;;;;9.60;4.00;;;;;;;11.76;82.54;95491.81;6210360;23;20249;-84
2022/04/02 01:55:27;;;;;;;9.33;5.83;;;;;;;11.48;83.70;95480.84;6184624;23;20178;-84
2022/04/02 01:58:04;;;;;;;12.63;5.53;;;;;;;11.58;83.95;95501.72;6189977;23;20177;-83
2022/04/02 02:00:40;;;;;;;10.23;5.90;;;;;;;11.55;84.21;95511.50;6212496;23;20171;-83
2022/04/02 02:03:07;;;;;;;11.77;6.53;;;;;;;11.49;84.08;95507.63;6211493;23;20179;-83
2022/04/02 02:05:35;;;;;;;10.97;7.10;;;;;;;11.08;86.34;95513.22;6213916;23;20179;-85
2022/04/02 02:08:05;;;;;;;11.27;6.83;;;;;;;11.14;85.61;95506.78;6189319;23;20174;-84
2022/04/02 02:10:43;;;;;;;14.53;7.07;;;;;;;11.10;86.16;95508.75;6217224;23;20166;-83
2022/04/02 02:13:29;;;;;;;8.07;4.67;;;;;;;10.82;85.34;95477.19;6218124;23;20170;-83
2022/04/02 02:16:07;;;;;;;9.03;4.90;;;;;;;10.64;85.34;95489.66;6216029;23;20194;-84
2022/04/02 02:18:36;;;;;;;13.47;7.07;;;;;;;10.59;86.61;95507.28;6217613;23;20221;-83
2022/04/02 02:21:04;;;;;;;14.27;8.10;;;;;;;10.29;87.87;95473.19;6231797;23;20223;-84
2022/04/02 02:23:32;;;;;;;18.33;10.33;;;;;;;10.22;88.24;95451.28;6234202;23;20208;-85
2022/04/02 02:26:01;;;;;;;10.00;7.60;;;;;;;10.48;87.96;95502.03;6239361;23;20162;-86
2022/04/02 02:28:28;;;;;;;10.53;7.00;;;;;;;10.53;88.54;95518.88;6175973;23;20190;-92
2022/04/02 02:30:58;;;;;;;8.50;6.20;;;;;;;10.51;88.49;95522.50;6196975;23;20171;-83
2022/04/02 02:36:13;;;;;;;10.57;6.20;;;;;;;10.35;88.76;95534.84;6175647;23;20205;-83
2022/04/02 02:38:51;;;;;;;8.27;5.60;;;;;;;10.27;87.28;95514.69;6224354;23;20198;-96
2022/04/02 02:41:26;;;;;;;7.63;5.53;;;;;;;10.52;87.71;95537.13;6229774;23;20147;-84
2022/04/02 02:43:58;;;;;;;8.73;5.23;;;;;;;10.59;86.48;95526.22;6236530;23;20236;-83
2022/04/02 02:46:34;;;;;;;8.27;5.40;;;;;;;10.23;86.69;95502.06;6221923;23;20716;-85
2022/04/02 02:49:08;;;;;;;9.00;5.53;;;;;;;10.39;86.84;95519.03;6189796;23;20245;-83
2022/04/02 02:51:37;;;;;;;7.27;5.07;;;;;;;10.44;87.05;95542.84;6213921;23;20166;-83
2022/04/02 02:54:09;;;;;;;13.07;6.33;;;;;;;10.33;88.00;95539.31;6213202;23;20164;-84
2022/04/02 02:56:38;;;;;;;10.07;7.37;;;;;;;10.28;88.78;95546.56;6187708;23;20250;-84
2022/04/02 02:59:05;;;;;;;12.80;5.70;;;;;;;9.87;89.60;95507.94;6183994;23;20216;-83
2022/04/02 03:01:33;;;;;;;9.93;6.43;;;;;;;9.81;91.05;95537.63;6215401;23;20160;-84
2022/04/02 03:04:00;;;;;;;10.57;5.70;;;;;;;10.02;89.55;95529.34;6212453;23;20166;-84
2022/04/02 03:06:32;;;;;;;11.77;7.43;;;;;;;9.54;90.51;95482.59;6215171;23;20174;-84
2022/04/02 03:09:03;;;;;;;12.03;6.57;;;;;;;9.86;89.13;95490.78;6217804;23;20170;-82
2022/04/02 03:11:32;;;;;;;12.20;5.97;;;;;;;10.28;88.67;95546.56;6194975;23;20210;-84
2022/04/02 03:14:01;;;;;;;11.17;6.37;;;;;;;10.29;88.49;95524.94;6215280;23;20174;-84
2022/04/02 03:16:28;;;;;;;9.57;6.00;;;;;;;10.58;87.72;95544.44;6216814;23;20720;-84
2022/04/02 03:19:02;;;;;;;9.07;5.40;;;;;;;10.57;86.38;95540.22;6192517;23;20257;-83
2022/04/02 03:21:29;;;;;;;7.47;5.10;;;;;;;10.60;85.47;95571.06;6193186;23;20243;-83
2022/04/02 03:23:59;;;;;;;11.20;5.03;;;;;;;10.45;86.16;95569.50;6219748;23;20166;-83
2022/04/02 03:26:30;;;;;;;8.83;6.70;;;;;;;9.94;87.15;95557.50;6194968;23;20173;-83
2022/04/02 03:29:02;;;;;;;11.07;6.63;;;;;;;9.61;88.22;95556.22;6193145;23;20200;-84
2022/04/02 03:31:30;;;;;;;10.90;6.13;;;;;;;9.33;89.83;95571.88;6218868;23;20173;-84
2022/04/02 03:33:58;;;;;;;13.43;7.10;;;;;;;8.77;91.81;95517.84;6165767;23;20248;-83
2022/04/02 03:36:25;;;;;;;10.50;6.73;;;;;;;8.85;92.72;95551.72;6218241;23;20166;-84
2022/04/02 03:38:54;;;;;;;13.60;7.63;;;;;;;8.98;92.79;95555.22;6215621;23;20722;-83
2022/04/02 03:41:23;;;;;;;10.03;7.33;;;;;;;9.08;93.45;95558.03;6216636;23;20537;-84
2022/04/02 03:43:53;;;;;;;11.80;7.27;;;;;;;9.06;92.89;95539.22;6216653;23;20166;-83
2022/04/02 03:49:58;;;;;;;12.27;6.40;;;;;;;9.69;90.76;95561.72;6214076;23;20162;-83
2022/04/02 03:52:36;;;;;;;15.13;6.30;;;;;;;9.61;89.25;95517.47;6212334;23;20465;-84
2022/04/02 03:55:09;;;;;;;10.43;6.20;;;;;;;10.04;88.18;95568.88;6213243;23;20162;-80
2022/04/02 03:57:39;;;;;;;10.47;6.77;;;;;;;10.29;87.93;95581.84;6212553;23;20162;-81
2022/04/02 04:00:09;;;;;;;8.83;7.10;;;;;;;9.99;87.68;95550.28;6212823;23;20589;-82
2022/04/02 04:02:40;;;;;;;12.80;7.30;;;;;;;10.18;87.16;95566.25;6214102;23;20515;-81
2022/04/02 04:05:10;;;;;;;12.30;7.43;;;;;;;10.12;86.89;95590.75;6219279;23;20169;-81
2022/04/02 04:07:38;;;;;;;9.57;6.37;;;;;;;9.55;88.07;95590.22;6226231;23;20177;-80
2022/04/02 04:10:07;;;;;;;13.43;6.87;;;;;;;9.27;89.24;95607.59;6227975;23;20201;-84
2022/04/02 04:12:36;;;;;;;10.13;6.93;;;;;;;9.09;90.56;95564.88;6202984;23;20182;-84
2022/04/02 04:15:07;;;;;;;14.57;7.87;;;;;;;9.47;89.98;95599.41;6212138;23;20560;-84
2022/04/02 04:17:35;;;;;;;10.23;7.60;;;;;;;9.76;89.00;95612.09;6197194;23;20524;-84
2022/04/02 04:20:06;;;;;;;13.17;6.03;;;;;;;9.89;88.21;95606.13;6234829;23;20200;-82
2022/04/02 04:22:35;;;;;;;8.17;6.13;;;;;;;10.13;86.70;95617.44;6239049;23;20155;-83
2022/04/02 04:25:04;;;;;;;8.77;6.37;;;;;;;10.10;85.63;95599.53;6240201;23;20226;-83
2022/04/02 04:27:33;;;;;;;12.83;6.10;;;;;;;10.00;85.52;95582.94;6238927;23;20158;-84
2022/04/02 04:30:00;;;;;;;9.83;7.03;;;;;;;10.31;85.27;95640.34;6228702;23;20175;-83
2022/04/02 04:32:29;;;;;;;10.13;6.63;;;;;;;10.21;84.94;95610.84;6187973;23;20158;-84
2022/04/02 04:34:56;;;;;;;9.73;6.13;;;;;;;10.49;84.20;95643.44;6212527;23;20170;-82
2022/04/02 04:37:23;;;;;;;12.00;6.77;;;;;;;10.58;84.37;95638.47;6211636;23;20166;-84
2022/04/02 04:39:52;;;;;;;13.13;6.27;;;;;;;10.62;83.89;95639.09;6209588;23;20568;-83
2022/04/02 04:42:21;;;;;;;9.57;7.00;;;;;;;10.80;83.66;95653.34;6161331;23;20634;-84
2022/04/02 04:44:53;;;;;;;15.00;9.10;;;;;;;10.77;83.73;95622.50;6210886;23;20257;-83
2022/04/02 04:47:20;;;;;;;9.07;6.83;;;;;;;11.05;82.39;95642.97;6238007;23;20161;-83
2022/04/02 04:49:50;;;;;;;10.40;6.00;;;;;;;10.94;81.15;95598.03;6238356;23;20155;-83
2022/04/02 04:52:18;;;;;;;11.17;6.67;;;;;;;11.62;79.05;95663.09;6229404;23;20177;-81
2022/04/02 04:54:50;;;;;;;11.47;7.93;;;;;;;11.28;79.04;95675.03;6238240;23;20159;-84
2022/04/02 04:57:19;;;;;;;12.33;7.87;;;;;;;10.69;80.26;95629.97;6237042;23;20227;-82
2022/04/02 04:59:58;;;;;;;16.37;9.60;;;;;;;10.57;81.33;95669.66;6193082;23;20193;-82
2022/04/02 05:02:30;;;;;;;13.70;9.27;;;;;;;10.51;81.92;95680.38;6189133;23;20840;-83
2022/04/02 05:04:58;;;;;;;17.17;8.93;;;;;;;10.42;81.47;95637.03;6188372;23;20222;-81
2022/04/02 05:07:49;;;;;;;21.13;9.33;;;;;;;10.72;81.96;95665.16;6220310;23;20173;-83
2022/04/02 05:10:19;;;;;;;14.83;8.73;;;;;;;10.99;81.16;95652.91;6190539;23;20168;-83
2022/04/02 05:12:54;;;;;;;13.10;8.80;;;;;;;11.37;79.74;95651.06;6161898;23;20173;-83
2022/04/02 05:15:26;;;;;;;12.30;6.97;;;;;;;11.83;77.81;95672.78;6217202;23;20197;-84
2022/04/02 05:18:01;;;;;;;10.43;6.90;;;;;;;12.11;76.95;95687.19;6219805;23;20164;-84
2022/04/02 05:20:30;;;;;;;14.73;7.80;;;;;;;12.27;75.87;95703.28;6220208;23;20195;-86
2022/04/02 05:22:58;;;;;;;13.90;8.90;;;;;;;11.95;76.33;95648.53;6197227;23;20180;-91
2022/04/02 05:25:26;;;;;;;13.47;6.67;;;;;;;11.87;76.83;95657.84;6212794;23;20164;-89
2022/04/02 05:27:57;;;;;;;10.80;6.33;;;;;;;11.88;77.06;95688.84;6227049;23;20171;-84
2022/04/02 05:30:27;;;;;;;8.20;5.70;;;;;;;11.23;79.20;95633.09;6198586;23;20201;-85
2022/04/02 05:32:57;;;;;;;7.93;6.10;;;;;;;11.40;79.82;95635.28;6201510;23;20166;-82
2022/04/02 05:35:24;;;;;;;10.63;5.07;;;;;;;11.78;79.78;95648.13;6222034;23;20243;-83
2022/04/02 05:37:57;;;;;;;10.30;4.33;;;;;;;12.33;77.84;95665.63;6221700;23;20164;-86
2022/04/02 05:40:26;;;;;;;9.90;5.17;;;;;;;12.70;76.85;95672.31;6219069;23;20710;-83
2022/04/02 05:42:56;;;;;;;7.60;5.43;;;;;;;12.99;75.85;95661.38;6194173;23;20536;-84
2022/04/02 05:45:23;;;;;;;9.90;5.63;;;;;;;13.26;76.16;95663.63;6218386;23;20746;-88
2022/04/02 05:47:56;;;;;;;10.63;4.83;;;;;;;13.57;74.82;95656.84;6216086;23;20255;-85
2022/04/02 05:50:26;;;;;;;11.10;6.40;;;;;;;13.88;73.48;95676.84;6214213;23;20239;-84
2022/04/02 05:53:08;;;;;;;10.87;6.50;;;;;;;13.94;73.24;95702.38;6213482;23;20207;-86
2022/04/02 05:55:36;;;;;;;11.87;6.50;;;;;;;14.28;73.39;95693.50;6213469;23;20169;-89
2022/04/02 05:58:06;;;;;;;16.57;12.87;;;;;;;14.21;71.98;95668.91;6210104;23;20614;-84
2022/04/02 06:00:34;;;;;;;13.87;7.80;;;;;;;14.29;74.10;95656.13;6214371;23;20243;-93
2022/04/02 06:03:04;;;;;;;13.07;6.53;;;;;;;14.58;71.16;95693.63;6215616;23;20162;-83
2022/04/02 06:09:04;;;;;;;16.40;10.70;;;;;;;14.73;70.46;95664.63;6215068;23;20167;-88
2022/04/02 06:11:32;;;;;;;16.37;8.17;;;;;;;15.14;70.75;95682.81;6226822;23;20178;-92
2022/04/02 06:14:01;;;;;;;11.73;6.53;;;;;;;15.26;69.37;95685.19;6222803;23;20173;-84
2022/04/02 06:16:29;;;;;;;11.97;7.63;;;;;;;15.15;68.10;95682.66;6212017;23;20202;-88
2022/04/02 06:19:00;;;;;;;12.83;7.80;;;;;;;15.30;68.85;95693.56;6211182;23;20167;-84
2022/04/02 06:21:28;;;;;;;18.30;7.97;;;;;;;15.18;68.25;95698.06;6214605;23;20262;-91
2022/04/02 06:23:56;;;;;;;17.63;8.60;;;;;;;15.35;68.79;95715.69;6212874;23;20162;-88
2022/04/02 06:26:27;;;;;;;11.87;7.37;;;;;;;15.21;69.39;95691.72;6214712;23;20170;-87
2022/04/02 06:29:01;;;;;;;12.53;7.97;;;;;;;15.52;69.49;95689.97;6219186;23;20173;-91
2022/04/02 06:31:29;;;;;;;16.13;7.27;;;;;;;15.37;68.06;95718.19;6217531;23;20590;-84
2022/04/02 06:33:57;;;;;;;14.37;7.67;;;;;;;15.44;68.79;95722.78;6213278;23;20680;-86
2022/04/02 06:36:29;;;;;;;13.30;7.80;;;;;;;15.53;70.90;95723.75;6219026;23;20173;-87
2022/04/02 06:38:57;;;;;;;16.13;9.33;;;;;;;15.56;69.41;95686.16;6221507;23;20178;-84
2022/04/02 06:41:24;;;;;;;11.03;7.93;;;;;;;15.98;69.65;95730.19;6210232;23;20206;-84
2022/04/02 06:43:52;;;;;;;17.33;6.67;;;;;;;15.63;67.29;95651.53;6212637;23;20178;-84
2022/04/02 06:46:30;;;;;;;11.80;7.67;;;;;;;15.95;66.17;95735.69;6215620;23;20180;-84
2022/04/02 06:49:00;;;;;;;11.57;6.30;;;;;;;15.66;65.53;95703.47;6219600;23;20219;-85
2022/04/02 06:51:30;;;;;;;11.73;7.30;;;;;;;15.85;67.13;95713.94;6188553;23;20174;-83
2022/04/02 06:54:06;;;;;;;14.00;7.50;;;;;;;16.20;67.98;95731.72;6213330;23;20208;-83
2022/04/02 06:56:56;;;;;;;10.70;7.07;;;;;;;16.27;66.46;95717.16;6214994;23;20174;-87
2022/04/02 06:59:41;;;;;;;8.33;5.27;;;;;;;16.41;63.41;95742.88;6216692;23;20220;-89
2022/04/02 07:02:09;;;;;;;12.70;6.10;;;;;;;16.12;63.63;95737.63;6215950;23;20166;-85
2022/04/02 07:04:39;;;;;;;14.73;6.70;;;;;;;16.18;64.14;95742.31;6213455;23;20208;-88
2022/04/02 07:07:10;;;;;;;10.73;5.73;;;;;;;16.46;62.81;95766.84;6215616;23;20171;-83
2022/04/02 07:09:41;;;;;;;11.13;6.60;;;;;;;16.48;63.27;95756.25;6213069;23;20170;-86
2022/04/02 07:12:12;;;;;;;8.33;5.00;;;;;;;16.56;59.78;95752.00;6208354;23;20186;-83
2022/04/02 07:15:11;;;;;;;10.83;4.60;;;;;;;16.83;57.79;95757.38;6211886;23;20464;-87
2022/04/02 07:18:20;;;;;;;14.00;4.50;;;;;;;16.97;57.48;95733.38;6207486;23;20185;-84
2022/04/02 07:21:10;;;;;;;8.00;4.40;;;;;;;17.21;57.88;95748.59;6212635;23;20203;-82
2022/04/02 07:26:54;;;;;;;10.67;5.00;;;;;;;17.51;56.33;95744.97;6208138;23;20173;-92
2022/04/02 07:29:44;;;;;;;12.27;4.57;;;;;;;17.63;54.32;95754.28;6214733;23;20537;-90
2022/04/02 07:32:25;;;;;;;9.63;4.57;;;;;;;17.58;53.75;95746.03;6216312;23;20636;-85
2022/04/02 07:35:51;;;;;;;10.83;4.37;;;;;;;17.70;54.23;95740.44;6209020;23;20267;-83
2022/04/02 07:43:38;;;;;;;9.33;3.50;;;;;;;17.85;53.18;95759.97;6122896;23;20183;-87
2022/04/02 07:46:51;;;;;;;7.40;3.00;;;;;;;17.28;51.58;95660.72;6108707;23;20169;-86
2022/04/02 07:49:23;;;;;;;6.30;2.93;;;;;;;17.81;52.98;95758.59;6177427;23;20175;-84
2022/04/02 07:51:56;;;;;;;17.97;3.43;;;;;;;17.88;52.85;95753.63;6209931;23;20566;-85
2022/04/02 07:54:43;;;;;;;8.20;2.73;;;;;;;17.94;51.60;95754.81;6214081;23;20187;-84
2022/04/02 07:57:17;;;;;;;6.43;2.67;;;;;;;17.71;51.80;95713.31;6213571;23;20170;-85
2022/04/02 08:00:04;;;;;;;3.60;1.50;;;;;;;17.86;50.30;95750.31;6211619;23;20227;-85
2022/04/02 08:02:49;;;;;;;4.73;2.30;;;;;;;17.63;50.59;95739.41;6192331;23;20168;-83
2022/04/02 08:05:49;;;;;;;16.10;3.07;;;;;;;17.64;51.62;95746.28;6208945;23;20168;-85
2022/04/02 08:08:18;;;;;;;9.00;2.57;;;;;;;17.65;52.45;95737.47;6165430;23;20187;-87
2022/04/02 08:11:31;;;;;;;10.17;3.10;;;;;;;17.82;53.03;95752.41;6219587;23;20188;-88
2022/04/02 08:14:11;;;;;;;6.57;2.30;;;;;;;17.55;52.19;95720.16;6216111;23;20702;-86
2022/04/02 08:16:45;;;;;;;3.63;1.80;;;;;;;17.63;52.21;95752.50;6218567;23;20205;-85
2022/04/02 08:19:53;;;;;;;3.63;1.70;;;;;;;17.64;49.98;95751.50;6183919;23;20174;-84
2022/04/02 08:23:24;;;;;;;3.03;2.07;;;;;;;17.93;50.88;95761.03;6180539;23;20851;-85
2022/04/02 08:26:19;;;;;;;5.83;2.00;;;;;;;17.94;50.21;95760.06;6188980;23;20183;-84
2022/04/02 08:29:33;;;;;;;4.43;1.73;;;;;;;18.10;48.98;95757.63;6209266;23;20201;-87
2022/04/02 08:32:09;;;;;;;8.93;2.77;;;;;;;18.30;48.81;95751.31;6216241;23;20164;-86
2022/04/02 08:35:00;;;;;;;3.73;2.30;;;;;;;18.22;48.88;95749.41;6218849;23;20168;-86
2022/04/02 08:38:00;;;;;;;7.43;2.57;;;;;;;18.40;49.60;95752.06;6228384;23;20603;-85
2022/04/02 08:41:06;;;;;;;19.17;7.07;;;;;;;18.62;48.69;95749.84;6208922;23;20718;-90
2022/04/02 08:44:04;;;;;;;2.60;1.47;;;;;;;18.74;46.27;95749.59;6203867;23;20204;-86
2022/04/02 08:47:06;;;;;;;7.40;2.40;;;;;;;18.80;45.00;95752.44;6218251;23;20179;-84
2022/04/02 08:50:36;;;;;;;5.43;2.37;;;;;;;18.85;46.63;95744.94;6220681;23;20172;-85
2022/04/02 08:54:08;;;;;;;5.00;2.07;;;;;;;18.65;46.39;95748.69;6217638;23;20215;-87
2022/04/02 08:58:05;;;;;;;3.83;1.40;;;;;;;18.17;46.78;95743.78;6220189;23;20164;-84
2022/04/02 09:01:41;;;;;;;2.43;1.40;;;;;;;18.28;47.53;95745.38;6189668;23;20201;-85
2022/04/02 09:04:51;;;;;;;6.67;2.30;;;;;;;18.43;47.02;95744.75;6203918;23;20184;-86
2022/04/02 09:08:20;;;;;;;5.63;2.30;;;;;;;18.73;45.64;95740.91;6165507;23;20260;-84
2022/04/02 09:11:15;;;;;;;3.47;1.60;;;;;;;19.05;42.51;95730.66;6181253;23;20173;-83
2022/04/02 09:14:34;;;;;;;5.97;2.87;;;;;;;19.08;40.79;95703.28;6167155;23;20178;-86
2022/04/02 09:17:37;;;;;;;4.43;1.90;;;;;;;19.39;40.72;95722.88;6163558;23;20170;-87
2022/04/02 09:21:00;;;;;;;4.13;1.20;;;;;;;19.27;39.82;95717.00;6195586;23;20223;-87
2022/04/02 09:23:39;;;;;;;2.40;1.57;;;;;;;19.34;40.00;95715.47;6200896;23;20488;-87
2022/04/02 09:26:22;;;;;;;4.93;1.37;;;;;;;19.49;40.34;95713.06;6135583;23;20276;-86
2022/04/02 09:29:12;;;;;;;3.57;1.60;;;;;;;19.39;39.66;95723.69;6164132;23;20609;-86
2022/04/02 09:31:46;;;;;;;7.73;2.90;;;;;;;19.75;38.94;95713.84;6172792;23;20178;-85
2022/04/02 09:34:42;;;;;;;7.70;2.30;;;;;;;19.55;38.29;95714.25;6222724;23;20166;-87
2022/04/02 09:37:48;;;;;;;2.70;1.27;;;;;;;19.80;36.73;95726.50;6224985;23;20173;-85
2022/04/02 09:40:18;;;;;;;7.27;3.70;;;;;;;19.60;36.83;95693.59;6219147;23;20649;-87
2022/04/02 09:42:50;;;;;;;1.27;1.00;;;;;;;19.77;38.59;95727.63;6224203;23;20170;-87
2022/04/02 09:45:27;;;;;;;4.23;1.70;;;;;;;19.82;37.46;95714.03;6222723;23;20593;-91
2022/04/02 09:48:28;;;;;;;4.80;1.40;;;;;;;20.18;36.75;95731.22;6199005;23;20252;-95
2022/04/02 09:51:04;;;;;;;3.87;1.33;;;;;;;20.23;35.58;95718.47;6224456;23;20200;-85
2022/04/02 09:53:40;;;;;;;4.20;1.70;;;;;;;20.25;34.98;95727.84;6228134;23;20173;-85
2022/04/02 09:56:28;;;;;;;2.47;1.20;;;;;;;20.35;36.48;95722.44;6228303;23;20180;-86
2022/04/02 09:59:34;;;;;;;2.13;1.40;;;;;;;20.33;34.54;95713.88;6226750;23;20232;-85
2022/04/02 10:02:13;;;;;;;1.67;1.10;;;;;;;20.39;35.03;95705.34;6224909;23;20212;-86
2022/04/02 10:05:05;;;;;;;3.03;1.57;;;;;;;20.71;34.54;95707.97;6233759;23;20176;-87
2022/04/02 10:08:05;;;;;;;4.40;1.10;;;;;;;20.55;34.80;95726.38;6226644;23;20174;-87
2022/04/02 10:10:40;;;;;;;5.87;1.37;;;;;;;20.42;33.29;95694.50;6228373;23;20178;-85
2022/04/02 10:13:13;;;;;;;4.00;1.80;;;;;;;20.33;34.89;95719.13;6224848;23;20193;-94
2022/04/02 10:15:52;;;;;;;2.80;1.40;;;;;;;20.44;33.17;95715.38;6232902;23;20494;-87
2022/04/02 10:18:27;;;;;;;3.53;1.80;;;;;;;20.59;32.86;95695.31;6233870;23;20235;-85
2022/04/02 10:20:58;;;;;;;11.80;1.97;;;;;;;20.70;33.46;95719.50;6229727;23;20201;-88
2022/04/02 10:23:34;;;;;;;4.23;1.70;;;;;;;20.83;32.36;95696.16;6231232;23;20170;-86
2022/04/02 10:26:07;;;;;;;4.50;1.77;;;;;;;20.99;32.03;95714.56;6228283;23;20599;-92
2022/04/02 10:28:52;;;;;;;5.57;1.27;;;;;;;20.91;31.35;95714.56;6229735;23;20522;-93
2022/04/02 10:31:34;;;;;;;2.83;1.20;;;;;;;20.70;31.48;95713.41;6199740;23;20196;-88
2022/04/02 10:34:13;;;;;;;4.47;1.20;;;;;;;20.71;32.28;95710.59;6222211;23;20184;-89
2022/04/02 10:37:29;;;;;;;5.53;2.47;;;;;;;20.89;31.94;95698.13;6219721;23;20555;-92
2022/04/02 10:40:51;;;;;;;8.60;2.53;;;;;;;20.69;31.21;95704.69;6209333;23;20174;-90
2022/04/02 10:44:21;;;;;;;4.90;1.80;;;;;;;20.87;31.15;95694.84;6209368;23;20657;-87
2022/04/02 10:47:47;;;;;;;3.57;1.50;;;;;;;20.61;31.29;95680.22;6207681;23;20173;-86
2022/04/02 10:51:46;;;;;;;4.27;1.60;;;;;;;20.81;32.13;95703.38;6211544;23;20240;-85
2022/04/02 10:55:08;;;;;;;3.13;1.10;;;;;;;21.23;30.86;95684.75;6213686;23;20173;-84
2022/04/02 10:58:31;;;;;;;1.63;1.30;;;;;;;20.96;32.58;95674.56;6182580;23;20201;-90
2022/04/02 11:01:59;;;;;;;2.90;1.60;;;;;;;21.17;31.11;95680.16;6207736;23;20214;-85
2022/04/02 11:05:18;;;;;;;1.97;1.30;;;;;;;20.78;30.68;95672.13;6212967;23;20195;-85
2022/04/02 11:08:40;;;;;;;2.63;1.30;;;;;;;21.00;31.43;95666.19;6214247;23;20168;-82
2022/04/02 11:12:04;;;;;;;3.77;1.70;;;;;;;20.88;31.63;95675.41;6190402;23;20177;-84
2022/04/02 11:15:42;;;;;;;3.93;1.50;;;;;;;20.92;31.19;95674.09;6208548;23;20577;-83
2022/04/02 11:22:49;;;;;;;7.03;2.07;;;;;;;21.30;29.87;95659.41;6209285;23;20201;-85
2022/04/02 11:26:13;;;;;;;2.30;1.20;;;;;;;21.75;30.02;95669.28;6210149;23;20523;-88
2022/04/02 11:29:38;;;;;;;1.83;1.30;;;;;;;21.01;30.32;95536.22;6208646;23;20258;-85
2022/04/02 11:33:08;;;;;;;3.77;1.17;;;;;;;21.98;29.29;95658.81;6215569;23;20195;-86
2022/04/02 11:36:29;;;;;;;2.67;1.90;;;;;;;22.26;29.73;95642.31;6223118;23;20182;-86
2022/04/02 11:39:58;;;;;;;3.57;1.40;;;;;;;22.37;27.94;95634.00;6202828;23;20251;-84
2022/04/02 11:42:51;;;;;;;1.47;1.20;;;;;;;22.14;29.82;95630.53;6215431;23;20528;-84
2022/04/02 11:45:32;;;;;;;1.50;1.40;;;;;;;21.95;28.40;95585.34;6229192;23;20280;-84
2022/04/02 11:48:32;;;;;;;1.30;1.20;;;;;;;22.24;29.87;95609.19;6225441;23;20173;-87
2022/04/02 11:51:33;;;;;;;1.87;1.20;;;;;;;22.19;28.89;95596.53;6224088;23;20183;-85
2022/04/02 11:54:08;;;;;;;1.83;1.17;;;;;;;22.22;29.08;95564.53;6219216;23;20218;-85
2022/04/02 11:56:44;;;;;;;4.23;1.60;;;;;;;22.32;28.21;95596.75;6228209;23;20179;-87
2022/04/02 11:59:16;;;;;;;3.80;1.10;;;;;;;22.36;28.05;95584.84;6225091;23;20183;-86
2022/04/02 12:01:56;;;;;;;1.80;1.40;;;;;;;22.30;28.60;95588.19;6212123;23;20205;-84
2022/04/02 12:04:47;;;;;;;2.10;1.10;;;;;;;22.15;30.16;95581.25;6218172;23;20203;-84
2022/04/02 12:07:24;;;;;;;3.33;1.37;;;;;;;21.84;28.40;95573.38;6226272;23;20175;-82
2022/04/02 12:09:53;;;;;;;2.90;1.03;;;;;;;21.92;28.44;95580.41;6225416;23;20184;-83
2022/04/02 12:12:25;;;;;;;2.63;1.57;;;;;;;21.84;29.84;95581.28;6227449;23;20214;-83
2022/04/02 12:14:58;;;;;;;3.57;1.10;;;;;;;22.06;29.76;95563.84;6199094;23;20656;-90
2022/04/02 12:17:32;;;;;;;4.33;1.33;;;;;;;21.84;29.70;95576.81;6223411;23;20709;-86
2022/04/02 12:20:36;;;;;;;1.70;1.07;;;;;;;21.79;30.24;95567.78;6235321;23;20159;-85
2022/04/02 12:23:15;;;;;;;3.23;1.00;;;;;;;21.81;30.32;95549.97;6224924;23;20167;-83
2022/04/02 12:26:06;;;;;;;1.83;1.00;;;;;;;21.60;29.78;95537.41;6200010;23;20168;-91
2022/04/02 12:28:48;;;;;;;2.80;1.20;;;;;;;21.59;30.90;95561.31;6216652;23;20169;-92
2022/04/02 12:31:17;;;;;;;2.20;1.30;;;;;;;21.61;31.25;95559.31;6221744;23;20176;-83
2022/04/02 12:33:52;;;;;;;4.40;2.90;;;;;;;21.31;31.87;95541.72;6219002;23;20191;-94
2022/04/02 12:36:30;;;;;;;2.17;1.57;;;;;;;21.34;32.62;95544.00;6219648;23;20192;-83
2022/04/02 12:39:08;;;;;;;2.00;1.10;;;;;;;21.36;32.96;95547.28;6224429;23;20191;-90
2022/04/02 12:41:49;;;;;;;2.63;1.90;;;;;;;21.33;32.36;95534.47;6223511;23;20195;-88
2022/04/02 12:44:21;;;;;;;2.00;1.07;;;;;;;21.09;33.20;95527.47;6215340;23;20169;-84
2022/04/02 12:46:49;;;;;;;5.20;1.90;;;;;;;21.16;32.43;95544.25;6210369;23;20675;-85
2022/04/02 12:49:35;;;;;;;4.40;1.60;;;;;;;21.10;32.10;95536.22;6209707;23;20232;-84
2022/04/02 12:52:17;;;;;;;2.70;1.53;;;;;;;21.06;31.64;95533.09;6208935;23;20172;-84
2022/04/02 12:54:50;;;;;;;4.17;1.70;;;;;;;20.90;31.56;95539.19;6207260;23;20228;-84
2022/04/02 12:57:20;;;;;;;3.57;1.67;;;;;;;20.81;31.81;95527.06;6210732;23;20226;-86